createdAt,value
2018-07-17T00:00:33.966Z,11.00
2018-07-17T00:03:04.996Z,10.23
2018-07-17T00:08:11.829Z,11.10
2018-07-17T00:13:16.671Z,10.93
2018-07-17T00:20:58.421Z,10.90
2018-07-17T00:23:27.486Z,9.67
2018-07-17T00:25:57.492Z,8.83
2018-07-17T00:31:02.323Z,9.57
2018-07-17T00:33:31.384Z,9.90
2018-07-17T00:36:04.018Z,9.80
2018-07-17T00:38:36.912Z,9.50
2018-07-17T00:43:46.173Z,12.40
2018-07-17T00:46:15.250Z,10.70
2018-07-17T00:48:49.994Z,10.07
2018-07-17T00:51:19.053Z,9.63
2018-07-17T00:53:48.116Z,10.13
2018-07-17T00:58:53.125Z,12.20
2018-07-17T01:01:30.637Z,11.70
2018-07-17T01:04:05.339Z,9.83
2018-07-17T01:06:39.775Z,9.27
2018-07-17T01:09:16.506Z,8.70
2018-07-17T01:11:51.165Z,8.87
2018-07-17T01:14:20.211Z,10.40
2018-07-17T01:16:49.286Z,11.47
2018-07-17T01:19:19.314Z,10.75
2018-07-17T01:21:48.391Z,11.93
2018-07-17T01:24:17.473Z,11.47
2018-07-17T01:26:46.525Z,10.47
2018-07-17T01:29:15.643Z,9.13
2018-07-17T01:34:20.473Z,12.13
2018-07-17T01:36:51.461Z,14.50
2018-07-17T01:39:20.537Z,10.67
2018-07-17T01:41:49.641Z,14.07
2018-07-17T01:44:18.708Z,14.25
2018-07-17T01:46:50.980Z,12.50
2018-07-17T01:49:20.989Z,12.07
2018-07-17T01:51:51.018Z,12.50
2018-07-17T01:54:20.084Z,11.90
2018-07-17T01:56:49.147Z,11.30
2018-07-17T01:59:18.317Z,12.23
2018-07-17T02:01:47.378Z,11.67
2018-07-17T02:04:17.431Z,11.73
2018-07-17T02:09:22.246Z,14.97
2018-07-17T02:14:08.715Z,15.15
2018-07-17T02:16:37.785Z,17.20
2018-07-17T02:19:06.991Z,14.43
2018-07-17T02:21:36.107Z,14.10
2018-07-17T02:24:05.183Z,15.60
2018-07-17T02:26:34.249Z,14.17
2018-07-17T02:29:04.344Z,13.90
2018-07-17T02:31:34.346Z,12.23
2018-07-17T02:36:39.155Z,15.60
2018-07-17T02:39:11.283Z,14.90
2018-07-17T02:41:42.333Z,15.60
2018-07-17T02:44:21.056Z,13.80
2018-07-17T02:46:51.065Z,13.33
2018-07-17T02:51:55.838Z,16.87
2018-07-17T02:57:00.678Z,15.50
2018-07-17T02:59:29.771Z,13.40
2018-07-17T03:01:58.835Z,13.40
2018-07-17T03:04:29.908Z,14.17
2018-07-17T03:06:59.078Z,12.67
2018-07-17T03:12:05.846Z,14.50
2018-07-17T03:14:34.927Z,14.17
2018-07-17T03:17:04.967Z,14.98
2018-07-17T03:19:34.029Z,13.20
2018-07-17T03:22:03.095Z,13.40
2018-07-17T03:24:32.199Z,11.87
2018-07-17T03:27:01.230Z,12.00
2018-07-17T03:29:30.324Z,14.15
2018-07-17T03:31:59.393Z,12.77
2018-07-17T03:34:28.467Z,10.97
2018-07-17T03:36:57.673Z,10.97
2018-07-17T03:39:26.754Z,12.77
2018-07-17T03:41:55.822Z,13.30
2018-07-17T03:44:30.187Z,13.65
2018-07-17T03:52:10.313Z,13.40
2018-07-17T03:54:39.362Z,12.07
2018-07-17T03:57:08.918Z,11.30
2018-07-17T03:59:46.174Z,13.60
2018-07-17T04:02:15.257Z,12.13
2018-07-17T04:04:44.312Z,12.27
2018-07-17T04:07:13.393Z,13.03
2018-07-17T04:09:42.461Z,11.57
2018-07-17T04:12:11.520Z,11.00
2018-07-17T04:14:42.473Z,11.03
2018-07-17T04:17:11.798Z,10.37
2018-07-17T04:22:16.799Z,12.70
2018-07-17T04:27:21.623Z,12.60
2018-07-17T04:29:51.080Z,11.33
2018-07-17T04:32:20.181Z,11.07
2018-07-17T04:34:51.222Z,10.70
2018-07-17T04:37:22.266Z,10.50
2018-07-17T04:39:57.016Z,10.20
2018-07-17T04:42:26.096Z,11.02
2018-07-17T04:44:56.121Z,10.87
2018-07-17T04:47:27.157Z,9.80
2018-07-17T04:49:57.489Z,10.80
2018-07-17T04:52:30.358Z,12.40
2018-07-17T04:57:37.075Z,11.70
2018-07-17T05:00:06.453Z,11.10
2018-07-17T05:05:13.221Z,12.20
2018-07-17T05:07:42.425Z,11.80
2018-07-17T05:10:16.231Z,12.25
2018-07-17T05:12:45.422Z,11.10
2018-07-17T05:15:15.493Z,11.77
2018-07-17T05:17:46.534Z,10.90
2018-07-17T05:22:51.413Z,12.23
2018-07-17T05:25:21.316Z,10.93
2018-07-17T05:27:50.369Z,10.40
2018-07-17T05:30:19.551Z,10.80
2018-07-17T05:32:49.629Z,12.50
2018-07-17T05:35:22.341Z,11.10
2018-07-17T05:40:27.078Z,11.37
2018-07-17T05:42:57.045Z,12.43
2018-07-17T05:45:26.132Z,10.57
2018-07-17T05:47:55.369Z,10.30
2018-07-17T05:50:24.424Z,9.80
2018-07-17T05:52:55.449Z,9.90
2018-07-17T05:58:01.013Z,10.20
2018-07-17T06:03:07.893Z,9.40
2018-07-17T06:05:36.959Z,10.40
2018-07-17T06:08:06.257Z,8.90
2018-07-17T06:10:35.374Z,10.32
2018-07-17T06:13:04.420Z,10.07
2018-07-17T06:15:34.425Z,10.07
2018-07-17T06:18:05.444Z,9.00
2018-07-17T06:23:15.986Z,10.40
2018-07-17T06:25:45.062Z,9.77
2018-07-17T06:28:15.318Z,8.67
2018-07-17T06:30:45.400Z,9.20
2018-07-17T06:35:50.598Z,9.38
2018-07-17T06:38:19.645Z,8.33
2018-07-17T06:40:49.737Z,7.83
2018-07-17T06:43:18.934Z,8.37
2018-07-17T06:45:47.982Z,9.70
2018-07-17T06:53:29.689Z,8.95
2018-07-17T06:56:01.952Z,8.27
2018-07-17T06:58:31.190Z,8.30
2018-07-17T07:03:36.674Z,8.80
2018-07-17T07:06:05.725Z,8.30
2018-07-17T07:08:36.799Z,7.80
2018-07-17T07:11:05.828Z,8.10
2018-07-17T07:13:35.135Z,8.87
2018-07-17T07:16:04.197Z,8.40
2018-07-17T07:18:33.257Z,9.10
2018-07-17T07:21:02.584Z,9.13
2018-07-17T07:23:32.812Z,8.80
2018-07-17T07:26:01.860Z,8.70
2018-07-17T07:28:32.874Z,7.47
2018-07-17T07:33:37.633Z,8.60
2018-07-17T07:36:06.697Z,7.83
2018-07-17T07:38:36.946Z,7.97
2018-07-17T07:43:41.987Z,7.55
2018-07-17T07:46:15.326Z,8.00
2018-07-17T07:48:44.455Z,7.13
2018-07-17T07:51:14.507Z,8.23
2018-07-17T07:53:43.549Z,7.30
2018-07-17T07:56:12.869Z,7.00
2018-07-17T07:58:42.942Z,7.70
2018-07-17T08:01:11.977Z,7.33
2018-07-17T08:03:41.111Z,6.80
2018-07-17T08:08:45.794Z,5.90
2018-07-17T08:13:50.537Z,6.07
2018-07-17T08:16:19.977Z,4.93
2018-07-17T08:18:49.035Z,5.80
2018-07-17T08:21:18.099Z,5.20
2018-07-17T08:26:25.643Z,5.72
2018-07-17T08:28:54.841Z,5.10
2018-07-17T08:31:25.212Z,5.45
2018-07-17T08:33:54.280Z,5.73
2018-07-17T08:39:01.337Z,5.65
2018-07-17T08:44:06.998Z,5.27
2018-07-17T08:46:37.314Z,4.93
2018-07-17T08:51:45.698Z,4.80
2018-07-17T08:56:50.590Z,5.20
2018-07-17T08:59:19.641Z,4.53
2018-07-17T09:01:50.838Z,5.83
2018-07-17T09:04:20.817Z,5.10
2018-07-17T09:09:25.772Z,4.30
2018-07-17T09:11:54.809Z,4.68
2018-07-17T09:14:24.153Z,6.20
2018-07-17T09:16:53.210Z,5.63
2018-07-17T09:19:22.284Z,4.00
2018-07-17T09:21:51.741Z,4.10
2018-07-17T09:24:20.948Z,3.93
2018-07-17T09:26:50.043Z,3.93
2018-07-17T09:29:21.078Z,4.00
2018-07-17T09:31:50.730Z,3.40
2018-07-17T09:34:19.804Z,4.13
2018-07-17T09:39:24.621Z,4.00
2018-07-17T09:44:29.414Z,3.83
2018-07-17T09:46:58.442Z,3.60
2018-07-17T09:49:27.491Z,3.97
2018-07-17T09:51:56.619Z,4.50
2018-07-17T09:54:25.667Z,3.80
2018-07-17T09:56:54.721Z,3.97
2018-07-17T10:04:59.500Z,3.70
2018-07-17T10:07:28.577Z,4.40
2018-07-17T10:09:57.633Z,4.00
2018-07-17T10:12:26.721Z,3.90
2018-07-17T10:17:31.781Z,3.90
2018-07-17T10:20:00.923Z,4.07
2018-07-17T10:22:29.900Z,4.30
2018-07-17T10:24:59.319Z,3.80
2018-07-17T10:27:28.521Z,3.72
2018-07-17T10:30:01.612Z,4.03
2018-07-17T10:32:30.661Z,3.80
2018-07-17T10:35:00.945Z,4.20
2018-07-17T10:37:30.012Z,3.47
2018-07-17T10:40:00.642Z,3.60
2018-07-17T10:42:32.617Z,3.90
2018-07-17T10:47:37.764Z,3.60
2018-07-17T10:52:42.785Z,3.75
2018-07-17T10:55:12.955Z,4.00
2018-07-17T10:57:42.001Z,4.17
2018-07-17T11:00:11.045Z,3.83
2018-07-17T11:02:40.480Z,4.07
2018-07-17T11:05:09.538Z,4.10
2018-07-17T11:07:38.582Z,4.10
2018-07-17T11:10:07.923Z,4.05
2018-07-17T11:12:36.971Z,3.83
2018-07-17T11:20:18.921Z,4.30
2018-07-17T11:22:48.200Z,4.00
2018-07-17T11:25:18.169Z,3.80
2018-07-17T11:27:47.223Z,4.00
2018-07-17T11:30:16.359Z,4.20
2018-07-17T11:32:45.424Z,3.78
2018-07-17T11:37:50.342Z,3.83
2018-07-17T11:45:31.249Z,4.40
2018-07-17T11:50:36.246Z,4.12
2018-07-17T11:53:05.450Z,4.30
2018-07-17T11:55:34.473Z,4.27
2018-07-17T11:58:03.538Z,3.97
2018-07-17T12:00:32.597Z,4.10
2018-07-17T12:03:05.021Z,4.28
2018-07-17T12:08:10.266Z,4.60
2018-07-17T12:10:39.307Z,4.50
2018-07-17T12:13:08.387Z,4.90
2018-07-17T12:15:37.677Z,4.00
2018-07-17T12:18:06.712Z,3.93
2018-07-17T12:20:37.870Z,4.43
2018-07-17T12:23:06.789Z,4.40
2018-07-17T12:25:37.802Z,3.73
2018-07-17T12:30:42.679Z,3.30
2018-07-17T12:33:13.864Z,3.67
2018-07-17T12:35:43.083Z,3.30
2018-07-17T12:38:12.127Z,3.00
2018-07-17T12:40:41.190Z,3.00
2018-07-17T12:43:10.673Z,3.13
2018-07-17T12:45:39.738Z,4.13
2018-07-17T12:48:08.869Z,3.30
2018-07-17T12:50:38.181Z,3.73
2018-07-17T12:53:07.235Z,3.43
2018-07-17T12:55:36.291Z,3.57
2018-07-17T13:00:42.109Z,4.30
2018-07-17T13:03:12.097Z,4.37
2018-07-17T13:05:41.457Z,3.00
2018-07-17T13:08:10.566Z,2.97
2018-07-17T13:10:39.614Z,2.70
2018-07-17T13:15:44.489Z,2.95
2018-07-17T13:18:15.504Z,2.80
2018-07-17T13:20:49.421Z,2.30
2018-07-17T13:25:54.344Z,2.50
2018-07-17T13:28:23.393Z,2.33
2018-07-17T13:30:54.577Z,2.67
2018-07-17T13:35:59.390Z,2.60
2018-07-17T13:38:28.857Z,2.47
2018-07-17T13:40:58.890Z,2.47
2018-07-17T13:46:03.772Z,2.20
2018-07-17T13:51:08.510Z,1.80
2018-07-17T13:53:41.664Z,1.97
2018-07-17T13:56:14.311Z,1.97
2018-07-17T14:03:57.240Z,3.25
2018-07-17T14:06:27.249Z,3.70
2018-07-17T14:08:58.291Z,3.27
2018-07-17T14:11:31.071Z,3.63
2018-07-17T14:14:01.086Z,4.00
2018-07-17T14:16:34.490Z,3.67
2018-07-17T14:19:14.188Z,4.70
2018-07-17T14:24:18.996Z,4.10
2018-07-17T14:26:49.486Z,4.23
2018-07-17T14:29:18.529Z,3.60
2018-07-17T14:31:47.694Z,3.90
2018-07-17T14:34:17.065Z,3.27
2018-07-17T14:36:49.685Z,3.40
2018-07-17T14:39:21.062Z,4.05
2018-07-17T14:41:50.104Z,3.30
2018-07-17T14:46:55.168Z,3.50
2018-07-17T14:49:24.315Z,3.10
2018-07-17T14:51:53.366Z,3.33
2018-07-17T14:56:58.232Z,3.00
2018-07-17T14:59:27.473Z,2.87
2018-07-17T15:01:56.858Z,3.03
2018-07-17T15:04:25.931Z,3.50
2018-07-17T15:06:55.273Z,3.60
2018-07-17T15:09:28.482Z,4.60
2018-07-17T15:14:33.342Z,6.10
2018-07-17T15:17:02.534Z,4.00
2018-07-17T15:19:31.581Z,4.47
2018-07-17T15:22:00.641Z,4.03
2018-07-17T15:24:29.737Z,3.93
2018-07-17T15:26:58.814Z,3.70
2018-07-17T15:29:31.478Z,3.87
2018-07-17T15:32:06.456Z,4.13
2018-07-17T15:34:35.433Z,3.87
2018-07-17T15:37:04.486Z,3.80
2018-07-17T15:39:34.270Z,4.10
2018-07-17T15:42:07.856Z,3.40
2018-07-17T15:44:37.382Z,2.97
2018-07-17T15:47:06.443Z,5.47
2018-07-17T15:49:36.474Z,3.37
2018-07-17T15:52:05.642Z,3.73
2018-07-17T15:54:34.744Z,3.60
2018-07-17T15:57:03.769Z,3.20
2018-07-17T15:59:32.821Z,3.10
2018-07-17T16:02:02.101Z,3.50
2018-07-17T16:04:35.098Z,3.43
2018-07-17T16:07:09.779Z,3.60
2018-07-17T16:09:46.236Z,3.97
2018-07-17T16:12:20.541Z,3.10
2018-07-17T16:14:57.148Z,3.10
2018-07-17T16:17:35.956Z,3.67
2018-07-17T16:20:10.644Z,2.80
2018-07-17T16:25:23.081Z,3.33
2018-07-17T16:27:58.811Z,3.40
2018-07-17T16:30:31.753Z,3.57
2018-07-17T16:33:00.996Z,2.80
2018-07-17T16:35:32.808Z,3.10
2018-07-17T16:40:42.411Z,3.20
2018-07-17T16:43:12.109Z,2.87
2018-07-17T16:45:42.851Z,2.97
2018-07-17T16:50:56.522Z,2.73
2018-07-17T16:53:27.523Z,2.80
2018-07-17T16:55:56.982Z,2.80
2018-07-17T16:58:26.182Z,2.80
2018-07-17T17:00:57.172Z,3.00
2018-07-17T17:03:26.543Z,2.73
2018-07-17T17:05:55.832Z,2.90
2018-07-17T17:11:00.693Z,3.40
2018-07-17T17:13:29.749Z,3.10
2018-07-17T17:18:34.617Z,2.90
2018-07-17T17:21:07.970Z,5.10
2018-07-17T17:23:42.687Z,3.03
2018-07-17T17:26:11.873Z,4.67
2018-07-17T17:28:40.924Z,6.80
2018-07-17T17:31:14.179Z,8.00
2018-07-17T17:33:43.215Z,6.63
2018-07-17T17:36:12.327Z,9.13
2018-07-17T17:38:41.338Z,7.93
2018-07-17T17:41:12.342Z,8.67
2018-07-17T17:43:41.398Z,9.73
2018-07-17T17:46:10.453Z,7.60
2018-07-17T17:48:40.462Z,8.20
2018-07-17T17:53:45.240Z,9.00
2018-07-17T17:56:18.326Z,7.57
2018-07-17T17:58:48.334Z,7.63
2018-07-17T18:01:17.414Z,8.60
2018-07-17T18:06:22.803Z,10.20
2018-07-17T18:08:51.930Z,9.30
2018-07-17T18:11:20.957Z,8.17
2018-07-17T18:13:50.017Z,8.20
2018-07-17T18:16:19.181Z,10.13
2018-07-17T18:21:24.230Z,8.45
2018-07-17T18:23:53.325Z,7.90
2018-07-17T18:26:22.363Z,6.20
2018-07-17T18:28:54.816Z,5.80
2018-07-17T18:31:23.884Z,5.10
2018-07-17T18:33:53.218Z,5.30
2018-07-17T18:41:33.863Z,6.18
2018-07-17T18:44:03.846Z,6.28
2018-07-17T18:46:32.906Z,5.27
2018-07-17T18:49:02.227Z,4.83
2018-07-17T18:51:31.270Z,5.35
2018-07-17T18:54:00.330Z,5.27
2018-07-17T18:56:30.374Z,5.20
2018-07-17T18:59:01.604Z,4.50
2018-07-17T19:01:34.065Z,4.40
2018-07-17T19:04:05.054Z,5.10
2018-07-17T19:06:34.166Z,5.35
2018-07-17T19:09:05.191Z,5.70
2018-07-17T19:11:34.262Z,4.33
2018-07-17T19:14:03.474Z,4.90
2018-07-17T19:16:33.543Z,4.37
2018-07-17T19:19:02.599Z,4.20
2018-07-17T19:24:08.372Z,4.93
2018-07-17T19:26:39.421Z,5.50
2018-07-17T19:31:45.335Z,5.90
2018-07-17T19:34:15.320Z,6.30
2018-07-17T19:39:20.105Z,5.83
2018-07-17T19:44:24.953Z,5.30
2018-07-17T19:46:54.006Z,5.47
2018-07-17T19:51:58.910Z,5.60
2018-07-17T19:54:27.973Z,6.10
2018-07-17T19:56:57.992Z,4.73
2018-07-17T20:02:02.899Z,5.70
2018-07-17T20:09:52.785Z,5.65
2018-07-17T20:12:21.843Z,5.70
2018-07-17T20:17:26.624Z,6.47
2018-07-17T20:22:31.475Z,5.50
2018-07-17T20:25:04.194Z,5.57
2018-07-17T20:27:35.169Z,5.53
2018-07-17T20:30:06.149Z,5.20
2018-07-17T20:32:35.216Z,4.80
2018-07-17T20:37:40.011Z,5.60
2018-07-17T20:40:12.365Z,5.40
2018-07-17T20:42:45.047Z,4.60
2018-07-17T20:45:16.062Z,5.03
2018-07-17T20:50:21.280Z,5.60
2018-07-17T20:52:50.367Z,5.20
2018-07-17T20:55:19.373Z,4.93
2018-07-17T20:57:52.306Z,6.47
2018-07-17T21:02:58.194Z,4.90
2018-07-17T21:05:28.203Z,5.20
2018-07-17T21:10:34.033Z,5.50
2018-07-17T21:13:03.100Z,5.30
2018-07-17T21:15:35.250Z,7.90
2018-07-17T21:20:40.025Z,6.03
2018-07-17T21:23:09.122Z,6.53
2018-07-17T21:25:38.193Z,5.30
2018-07-17T21:33:19.721Z,4.93
2018-07-17T21:38:24.561Z,5.07
2018-07-17T21:40:53.622Z,5.20
2018-07-17T21:43:22.746Z,5.67
2018-07-17T21:45:51.812Z,6.10
2018-07-17T21:48:20.876Z,5.60
2018-07-17T21:50:51.909Z,5.70
2018-07-17T22:01:08.701Z,5.70
2018-07-17T22:06:18.433Z,5.97
2018-07-17T22:08:51.323Z,6.23
2018-07-17T22:13:56.101Z,6.13
2018-07-17T22:16:25.170Z,6.10
2018-07-17T22:21:33.505Z,6.10
2018-07-17T22:26:38.271Z,6.70
2018-07-17T22:29:11.879Z,5.33
2018-07-17T22:31:41.882Z,5.77
2018-07-17T22:34:10.938Z,6.17
2018-07-17T22:36:39.990Z,5.63
2018-07-17T22:41:45.746Z,6.23
2018-07-17T22:46:51.522Z,5.80
2018-07-17T22:51:56.281Z,5.80
2018-07-17T22:54:25.337Z,6.80
2018-07-17T22:56:59.281Z,7.03
2018-07-17T23:02:07.616Z,6.47
2018-07-17T23:04:36.738Z,6.07
2018-07-17T23:07:05.798Z,5.23
2018-07-17T23:09:34.858Z,5.90
2018-07-17T23:12:04.948Z,5.80
2018-07-17T23:14:34.002Z,6.30
2018-07-17T23:17:03.050Z,6.25
2018-07-17T23:19:32.130Z,7.32
2018-07-17T23:24:37.383Z,6.60
2018-07-17T23:27:07.411Z,6.43
2018-07-17T23:34:47.933Z,7.37
2018-07-17T23:37:25.398Z,6.53
2018-07-17T23:39:56.359Z,6.10
2018-07-17T23:42:25.408Z,6.13
2018-07-17T23:44:54.465Z,6.50
2018-07-17T23:47:29.384Z,6.07
2018-07-17T23:49:59.378Z,5.93
2018-07-17T23:52:30.464Z,6.40
2018-07-17T23:54:59.535Z,6.67
